Hovedside
METAR-TAF:

METAR-TAF

Lufthavner :

Kärdla, Estland

Kärdla lufthavn

breddegrad: 58-59N, lengdegrad: 022-49E, høyde over havet: 5 m

Gjeldene værobservasjon

Denne rapporten ble laget for 55 minutter siden, klokken 06:50 UTC
Vind 5 kt fra Øst-sørøst
Temperatur -1°C
Luftfuktighet 100%
Trykk 1032 hPa
Sikt 10 km eller mer
Få skyer i en høyde av 3000 ft

METAR: EEKA 240650Z 12005KT 9999 FEW030 M01/M01 Q1032

Tid: 10:45 (07:45 UTC)

Varsel

Denne rapporten ble laget for 4 timer og 45 minutter siden, klokken 03:00 UTC
Varsel gyldig fra 24. klokken 04 UTC til 24. klokken 10 UTC
Vind 10 kt fra Sørøst
Sikt 10 km eller mer
Spredte skyer i en høyde av 3000 ft
Sannsynlighet 30% :
Midlertidig
fra 24. klokken 04 UTC til 24. klokken 07 UTC
Brutte skyer i en høyde av 500 ft

TAF: EEKA 240300Z 2404/2410 14010KT 9999 SCT030 PROB30 TEMPO 2404/2407 BKN005

Værobservasjoner og værvarsel for over 4000 flyplasser (METAR- og TAF-rapporter).

Tilgjengelige stasjoner er representert av de røde og gule prikkene på kartet.

Hold musepekeren over prikken for å se navnet på stasjonen.

Klikk så for å se værobservasjoner og -varsler.

For å forandre kartet kan du klikke på den grønne knappen med svart kryss for å zoome inn, på den grønne knappen med strek for å zoome ut, eller på de grønne pilene for å se tilstøtende kart.


METAR-TAF: